sensor_id;sensor_type;location;lat;lon;timestamp;P1;durP1;ratioP1;P2;durP2;ratioP2
54454;SDS011;40364;52.270;10.546;2022-10-31T00:02:21;12.77;;;3.65;;
54454;SDS011;40364;52.270;10.546;2022-10-31T00:04:48;6.22;;;3.90;;
54454;SDS011;40364;52.270;10.546;2022-10-31T00:07:16;11.23;;;4.35;;
54454;SDS011;40364;52.270;10.546;2022-10-31T00:09:43;8.38;;;3.85;;
54454;SDS011;40364;52.270;10.546;2022-10-31T00:12:10;12.50;;;4.00;;
54454;SDS011;40364;52.270;10.546;2022-10-31T00:14:36;11.27;;;4.35;;
54454;SDS011;40364;52.270;10.546;2022-10-31T00:17:03;7.20;;;4.28;;
54454;SDS011;40364;52.270;10.546;2022-10-31T00:19:29;10.68;;;3.95;;
54454;SDS011;40364;52.270;10.546;2022-10-31T00:21:56;11.20;;;4.50;;
54454;SDS011;40364;52.270;10.546;2022-10-31T00:24:24;8.30;;;4.53;;
54454;SDS011;40364;52.270;10.546;2022-10-31T00:26:51;9.00;;;4.68;;
54454;SDS011;40364;52.270;10.546;2022-10-31T00:29:17;16.83;;;3.97;;
54454;SDS011;40364;52.270;10.546;2022-10-31T00:31:44;11.07;;;4.40;;
54454;SDS011;40364;52.270;10.546;2022-10-31T00:34:11;7.45;;;3.80;;
54454;SDS011;40364;52.270;10.546;2022-10-31T00:36:37;9.77;;;3.95;;
54454;SDS011;40364;52.270;10.546;2022-10-31T00:39:04;8.02;;;3.72;;
54454;SDS011;40364;52.270;10.546;2022-10-31T00:41:32;10.50;;;4.43;;
54454;SDS011;40364;52.270;10.546;2022-10-31T00:43:59;12.05;;;3.60;;
54454;SDS011;40364;52.270;10.546;2022-10-31T00:46:25;9.27;;;3.95;;
54454;SDS011;40364;52.270;10.546;2022-10-31T00:48:52;10.00;;;4.25;;
54454;SDS011;40364;52.270;10.546;2022-10-31T00:51:19;12.30;;;4.03;;
54454;SDS011;40364;52.270;10.546;2022-10-31T00:53:45;8.60;;;4.28;;
54454;SDS011;40364;52.270;10.546;2022-10-31T00:56:12;11.40;;;5.10;;
54454;SDS011;40364;52.270;10.546;2022-10-31T00:58:40;12.02;;;4.95;;
54454;SDS011;40364;52.270;10.546;2022-10-31T01:01:07;11.52;;;4.65;;
54454;SDS011;40364;52.270;10.546;2022-10-31T01:03:33;10.93;;;4.60;;
54454;SDS011;40364;52.270;10.546;2022-10-31T01:06:01;11.77;;;3.70;;
54454;SDS011;40364;52.270;10.546;2022-10-31T01:08:30;13.77;;;4.80;;
54454;SDS011;40364;52.270;10.546;2022-10-31T01:11:00;10.05;;;4.55;;
54454;SDS011;40364;52.270;10.546;2022-10-31T01:13:28;13.60;;;4.93;;
54454;SDS011;40364;52.270;10.546;2022-10-31T01:15:56;9.70;;;4.38;;
54454;SDS011;40364;52.270;10.546;2022-10-31T01:18:24;14.25;;;4.68;;
54454;SDS011;40364;52.270;10.546;2022-10-31T01:20:58;16.42;;;4.88;;
54454;SDS011;40364;52.270;10.546;2022-10-31T01:23:26;9.95;;;5.00;;
54454;SDS011;40364;52.270;10.546;2022-10-31T01:26:01;14.30;;;4.68;;
54454;SDS011;40364;52.270;10.546;2022-10-31T01:28:29;16.30;;;5.20;;
54454;SDS011;40364;52.270;10.546;2022-10-31T01:31:00;10.18;;;4.00;;
54454;SDS011;40364;52.270;10.546;2022-10-31T01:33:28;9.25;;;4.32;;
54454;SDS011;40364;52.270;10.546;2022-10-31T01:35:55;7.05;;;4.00;;
54454;SDS011;40364;52.270;10.546;2022-10-31T01:38:22;12.82;;;4.25;;
54454;SDS011;40364;52.270;10.546;2022-10-31T01:40:49;10.50;;;4.47;;
54454;SDS011;40364;52.270;10.546;2022-10-31T01:43:16;13.38;;;4.70;;
54454;SDS011;40364;52.270;10.546;2022-10-31T01:45:44;8.30;;;4.43;;
54454;SDS011;40364;52.270;10.546;2022-10-31T01:48:17;15.20;;;4.70;;
54454;SDS011;40364;52.270;10.546;2022-10-31T01:50:47;15.00;;;4.55;;
54454;SDS011;40364;52.270;10.546;2022-10-31T01:53:16;9.57;;;4.25;;
54454;SDS011;40364;52.270;10.546;2022-10-31T01:55:44;16.02;;;5.30;;
54454;SDS011;40364;52.270;10.546;2022-10-31T01:58:13;11.00;;;4.30;;
54454;SDS011;40364;52.270;10.546;2022-10-31T02:00:41;11.98;;;5.13;;
54454;SDS011;40364;52.270;10.546;2022-10-31T02:03:12;14.43;;;5.10;;
54454;SDS011;40364;52.270;10.546;2022-10-31T02:05:40;16.92;;;5.20;;
54454;SDS011;40364;52.270;10.546;2022-10-31T02:08:10;13.27;;;5.57;;
54454;SDS011;40364;52.270;10.546;2022-10-31T02:10:43;9.85;;;5.00;;
54454;SDS011;40364;52.270;10.546;2022-10-31T02:13:10;11.45;;;4.78;;
54454;SDS011;40364;52.270;10.546;2022-10-31T02:15:38;12.40;;;4.60;;
54454;SDS011;40364;52.270;10.546;2022-10-31T02:18:06;13.07;;;5.03;;
54454;SDS011;40364;52.270;10.546;2022-10-31T02:20:36;12.75;;;4.60;;
54454;SDS011;40364;52.270;10.546;2022-10-31T02:26:23;15.63;;;4.97;;
54454;SDS011;40364;52.270;10.546;2022-10-31T02:29:13;12.38;;;4.82;;
54454;SDS011;40364;52.270;10.546;2022-10-31T02:32:06;22.50;;;6.10;;
54454;SDS011;40364;52.270;10.546;2022-10-31T02:34:43;12.70;;;4.15;;
54454;SDS011;40364;52.270;10.546;2022-10-31T02:37:20;21.40;;;6.72;;
54454;SDS011;40364;52.270;10.546;2022-10-31T02:39:56;14.63;;;4.45;;
54454;SDS011;40364;52.270;10.546;2022-10-31T02:42:29;15.52;;;5.32;;
54454;SDS011;40364;52.270;10.546;2022-10-31T02:45:06;10.00;;;4.63;;
54454;SDS011;40364;52.270;10.546;2022-10-31T02:47:39;9.57;;;4.60;;
54454;SDS011;40364;52.270;10.546;2022-10-31T02:50:10;13.15;;;4.93;;
54454;SDS011;40364;52.270;10.546;2022-10-31T02:52:40;15.15;;;5.13;;
54454;SDS011;40364;52.270;10.546;2022-10-31T02:55:11;11.63;;;4.90;;
54454;SDS011;40364;52.270;10.546;2022-10-31T02:57:39;29.20;;;5.90;;
54454;SDS011;40364;52.270;10.546;2022-10-31T03:00:08;10.88;;;4.75;;
54454;SDS011;40364;52.270;10.546;2022-10-31T03:02:43;14.43;;;5.22;;
54454;SDS011;40364;52.270;10.546;2022-10-31T03:05:27;13.30;;;5.72;;
54454;SDS011;40364;52.270;10.546;2022-10-31T03:08:08;14.70;;;5.47;;
54454;SDS011;40364;52.270;10.546;2022-10-31T03:10:42;12.07;;;5.95;;
54454;SDS011;40364;52.270;10.546;2022-10-31T03:13:16;16.13;;;4.82;;
54454;SDS011;40364;52.270;10.546;2022-10-31T03:15:49;18.65;;;6.55;;
54454;SDS011;40364;52.270;10.546;2022-10-31T03:18:20;18.05;;;7.10;;
54454;SDS011;40364;52.270;10.546;2022-10-31T03:20:54;15.85;;;6.57;;
54454;SDS011;40364;52.270;10.546;2022-10-31T03:23:25;16.33;;;7.32;;
54454;SDS011;40364;52.270;10.546;2022-10-31T03:25:54;15.35;;;7.30;;
54454;SDS011;40364;52.270;10.546;2022-10-31T03:28:22;19.05;;;8.07;;
54454;SDS011;40364;52.270;10.546;2022-10-31T03:30:53;17.83;;;8.15;;
54454;SDS011;40364;52.270;10.546;2022-10-31T03:33:23;19.88;;;8.75;;
54454;SDS011;40364;52.270;10.546;2022-10-31T03:35:54;17.38;;;8.82;;
54454;SDS011;40364;52.270;10.546;2022-10-31T03:38:23;24.42;;;9.20;;
54454;SDS011;40364;52.270;10.546;2022-10-31T03:40:51;22.58;;;9.40;;
54454;SDS011;40364;52.270;10.546;2022-10-31T03:43:22;19.85;;;9.40;;
54454;SDS011;40364;52.270;10.546;2022-10-31T03:45:52;20.30;;;8.98;;
54454;SDS011;40364;52.270;10.546;2022-10-31T03:48:20;34.08;;;9.65;;
54454;SDS011;40364;52.270;10.546;2022-10-31T03:50:51;26.05;;;9.93;;
54454;SDS011;40364;52.270;10.546;2022-10-31T03:53:25;20.08;;;10.07;;
54454;SDS011;40364;52.270;10.546;2022-10-31T03:55:59;20.40;;;9.73;;
54454;SDS011;40364;52.270;10.546;2022-10-31T03:58:29;24.20;;;9.43;;
54454;SDS011;40364;52.270;10.546;2022-10-31T04:01:02;21.48;;;9.98;;
54454;SDS011;40364;52.270;10.546;2022-10-31T04:03:32;23.25;;;10.20;;
54454;SDS011;40364;52.270;10.546;2022-10-31T04:06:05;26.30;;;10.48;;
54454;SDS011;40364;52.270;10.546;2022-10-31T04:08:37;22.88;;;9.70;;
54454;SDS011;40364;52.270;10.546;2022-10-31T04:11:07;20.63;;;10.30;;
54454;SDS011;40364;52.270;10.546;2022-10-31T04:13:36;23.33;;;9.85;;
54454;SDS011;40364;52.270;10.546;2022-10-31T04:16:06;23.25;;;9.98;;
54454;SDS011;40364;52.270;10.546;2022-10-31T04:18:34;27.73;;;11.15;;
54454;SDS011;40364;52.270;10.546;2022-10-31T04:21:01;21.10;;;9.05;;
54454;SDS011;40364;52.270;10.546;2022-10-31T04:23:31;23.70;;;9.88;;
54454;SDS011;40364;52.270;10.546;2022-10-31T04:25:58;30.02;;;10.10;;
54454;SDS011;40364;52.270;10.546;2022-10-31T04:28:25;23.92;;;9.65;;
54454;SDS011;40364;52.270;10.546;2022-10-31T04:30:51;20.85;;;11.23;;
54454;SDS011;40364;52.270;10.546;2022-10-31T04:33:18;33.25;;;11.82;;
54454;SDS011;40364;52.270;10.546;2022-10-31T04:35:45;26.30;;;10.38;;
54454;SDS011;40364;52.270;10.546;2022-10-31T04:38:12;24.65;;;10.75;;
54454;SDS011;40364;52.270;10.546;2022-10-31T04:40:40;24.35;;;10.02;;
54454;SDS011;40364;52.270;10.546;2022-10-31T04:43:07;24.30;;;10.07;;
54454;SDS011;40364;52.270;10.546;2022-10-31T04:45:34;26.17;;;10.20;;
54454;SDS011;40364;52.270;10.546;2022-10-31T04:48:00;20.67;;;10.85;;
54454;SDS011;40364;52.270;10.546;2022-10-31T04:50:27;24.35;;;11.23;;
54454;SDS011;40364;52.270;10.546;2022-10-31T04:52:53;24.27;;;10.95;;
54454;SDS011;40364;52.270;10.546;2022-10-31T04:55:20;25.40;;;11.30;;
54454;SDS011;40364;52.270;10.546;2022-10-31T04:57:48;29.10;;;11.73;;
54454;SDS011;40364;52.270;10.546;2022-10-31T05:00:17;25.00;;;11.45;;
54454;SDS011;40364;52.270;10.546;2022-10-31T05:02:46;26.92;;;11.98;;
54454;SDS011;40364;52.270;10.546;2022-10-31T05:05:13;29.88;;;13.18;;
54454;SDS011;40364;52.270;10.546;2022-10-31T05:07:40;28.65;;;12.15;;
54454;SDS011;40364;52.270;10.546;2022-10-31T05:10:08;28.23;;;12.00;;
54454;SDS011;40364;52.270;10.546;2022-10-31T05:12:36;29.52;;;12.88;;
54454;SDS011;40364;52.270;10.546;2022-10-31T05:15:05;27.58;;;13.60;;
54454;SDS011;40364;52.270;10.546;2022-10-31T05:17:32;28.13;;;12.05;;
54454;SDS011;40364;52.270;10.546;2022-10-31T05:19:58;32.55;;;13.55;;
54454;SDS011;40364;52.270;10.546;2022-10-31T05:22:25;32.72;;;14.75;;
54454;SDS011;40364;52.270;10.546;2022-10-31T05:24:51;31.45;;;14.50;;
54454;SDS011;40364;52.270;10.546;2022-10-31T05:27:18;29.45;;;13.20;;
54454;SDS011;40364;52.270;10.546;2022-10-31T05:29:46;32.20;;;13.57;;
54454;SDS011;40364;52.270;10.546;2022-10-31T05:32:14;27.60;;;13.27;;
54454;SDS011;40364;52.270;10.546;2022-10-31T05:34:40;37.40;;;14.88;;
54454;SDS011;40364;52.270;10.546;2022-10-31T05:37:07;28.13;;;13.15;;
54454;SDS011;40364;52.270;10.546;2022-10-31T05:39:34;28.52;;;13.77;;
54454;SDS011;40364;52.270;10.546;2022-10-31T05:42:00;37.08;;;13.80;;
54454;SDS011;40364;52.270;10.546;2022-10-31T05:44:27;28.55;;;13.40;;
54454;SDS011;40364;52.270;10.546;2022-10-31T05:46:54;28.30;;;14.05;;
54454;SDS011;40364;52.270;10.546;2022-10-31T05:49:22;26.83;;;13.88;;
54454;SDS011;40364;52.270;10.546;2022-10-31T05:51:48;35.47;;;13.85;;
54454;SDS011;40364;52.270;10.546;2022-10-31T05:54:15;26.52;;;13.02;;
54454;SDS011;40364;52.270;10.546;2022-10-31T05:56:42;24.85;;;12.50;;
54454;SDS011;40364;52.270;10.546;2022-10-31T05:59:08;30.27;;;13.55;;
54454;SDS011;40364;52.270;10.546;2022-10-31T06:01:35;25.45;;;13.43;;
54454;SDS011;40364;52.270;10.546;2022-10-31T06:04:01;37.90;;;15.02;;
54454;SDS011;40364;52.270;10.546;2022-10-31T06:06:29;34.55;;;13.65;;
54454;SDS011;40364;52.270;10.546;2022-10-31T06:08:56;35.03;;;13.27;;
54454;SDS011;40364;52.270;10.546;2022-10-31T06:11:23;29.88;;;13.35;;
54454;SDS011;40364;52.270;10.546;2022-10-31T06:13:50;25.08;;;13.40;;
54454;SDS011;40364;52.270;10.546;2022-10-31T06:16:16;31.70;;;13.35;;
54454;SDS011;40364;52.270;10.546;2022-10-31T06:18:43;25.33;;;12.82;;
54454;SDS011;40364;52.270;10.546;2022-10-31T06:21:09;30.98;;;12.60;;
54454;SDS011;40364;52.270;10.546;2022-10-31T06:23:37;28.42;;;13.95;;
54454;SDS011;40364;52.270;10.546;2022-10-31T06:26:04;30.45;;;13.93;;
54454;SDS011;40364;52.270;10.546;2022-10-31T06:28:31;29.48;;;12.35;;
54454;SDS011;40364;52.270;10.546;2022-10-31T06:30:57;24.75;;;12.30;;
54454;SDS011;40364;52.270;10.546;2022-10-31T06:33:24;27.65;;;12.80;;
54454;SDS011;40364;52.270;10.546;2022-10-31T06:35:50;27.27;;;12.18;;
54454;SDS011;40364;52.270;10.546;2022-10-31T06:38:17;30.30;;;13.57;;
54454;SDS011;40364;52.270;10.546;2022-10-31T06:40:45;23.95;;;12.38;;
54454;SDS011;40364;52.270;10.546;2022-10-31T06:43:12;29.38;;;11.88;;
54454;SDS011;40364;52.270;10.546;2022-10-31T06:45:39;34.47;;;12.25;;
54454;SDS011;40364;52.270;10.546;2022-10-31T06:48:06;35.08;;;11.88;;
54454;SDS011;40364;52.270;10.546;2022-10-31T06:50:33;34.88;;;13.70;;
54454;SDS011;40364;52.270;10.546;2022-10-31T06:53:00;26.30;;;11.70;;
54454;SDS011;40364;52.270;10.546;2022-10-31T06:55:26;29.33;;;12.95;;
54454;SDS011;40364;52.270;10.546;2022-10-31T06:57:55;26.92;;;12.00;;
54454;SDS011;40364;52.270;10.546;2022-10-31T07:00:24;28.42;;;12.82;;
54454;SDS011;40364;52.270;10.546;2022-10-31T07:02:55;25.10;;;12.82;;
54454;SDS011;40364;52.270;10.546;2022-10-31T07:05:21;35.25;;;13.40;;
54454;SDS011;40364;52.270;10.546;2022-10-31T07:07:51;27.65;;;13.35;;
54454;SDS011;40364;52.270;10.546;2022-10-31T07:10:18;27.35;;;12.18;;
54454;SDS011;40364;52.270;10.546;2022-10-31T07:12:45;26.83;;;12.90;;
54454;SDS011;40364;52.270;10.546;2022-10-31T07:15:13;30.25;;;13.10;;
54454;SDS011;40364;52.270;10.546;2022-10-31T07:17:40;22.67;;;10.77;;
54454;SDS011;40364;52.270;10.546;2022-10-31T07:20:07;26.95;;;11.93;;
54454;SDS011;40364;52.270;10.546;2022-10-31T07:22:34;33.33;;;11.57;;
54454;SDS011;40364;52.270;10.546;2022-10-31T07:25:02;23.13;;;10.90;;
54454;SDS011;40364;52.270;10.546;2022-10-31T07:27:29;27.88;;;12.38;;
54454;SDS011;40364;52.270;10.546;2022-10-31T07:30:01;31.83;;;13.45;;
54454;SDS011;40364;52.270;10.546;2022-10-31T07:32:37;32.33;;;13.05;;
54454;SDS011;40364;52.270;10.546;2022-10-31T07:35:05;29.88;;;14.27;;
54454;SDS011;40364;52.270;10.546;2022-10-31T07:37:33;25.98;;;13.52;;
54454;SDS011;40364;52.270;10.546;2022-10-31T07:40:00;25.70;;;13.25;;
54454;SDS011;40364;52.270;10.546;2022-10-31T07:42:26;32.55;;;13.27;;
54454;SDS011;40364;52.270;10.546;2022-10-31T07:44:53;36.78;;;14.32;;
54454;SDS011;40364;52.270;10.546;2022-10-31T07:47:20;35.55;;;13.68;;
54454;SDS011;40364;52.270;10.546;2022-10-31T07:49:48;33.03;;;15.13;;
54454;SDS011;40364;52.270;10.546;2022-10-31T07:52:15;36.35;;;14.77;;
54454;SDS011;40364;52.270;10.546;2022-10-31T07:54:41;31.13;;;14.65;;
54454;SDS011;40364;52.270;10.546;2022-10-31T07:57:08;27.08;;;13.52;;
54454;SDS011;40364;52.270;10.546;2022-10-31T07:59:35;30.83;;;14.05;;
54454;SDS011;40364;52.270;10.546;2022-10-31T08:02:01;36.75;;;14.80;;
54454;SDS011;40364;52.270;10.546;2022-10-31T08:04:28;39.25;;;15.07;;
54454;SDS011;40364;52.270;10.546;2022-10-31T08:06:56;33.50;;;13.98;;
54454;SDS011;40364;52.270;10.546;2022-10-31T08:09:23;26.98;;;14.05;;
54454;SDS011;40364;52.270;10.546;2022-10-31T08:11:50;28.75;;;12.75;;
54454;SDS011;40364;52.270;10.546;2022-10-31T08:14:16;30.75;;;14.65;;
54454;SDS011;40364;52.270;10.546;2022-10-31T08:16:43;30.85;;;12.77;;
54454;SDS011;40364;52.270;10.546;2022-10-31T08:19:10;32.42;;;14.70;;
54454;SDS011;40364;52.270;10.546;2022-10-31T08:21:37;32.20;;;14.05;;
54454;SDS011;40364;52.270;10.546;2022-10-31T08:24:05;35.05;;;13.82;;
54454;SDS011;40364;52.270;10.546;2022-10-31T08:26:32;32.63;;;14.43;;
54454;SDS011;40364;52.270;10.546;2022-10-31T08:28:59;35.25;;;13.73;;
54454;SDS011;40364;52.270;10.546;2022-10-31T08:31:26;28.75;;;13.70;;
54454;SDS011;40364;52.270;10.546;2022-10-31T08:33:53;33.28;;;14.38;;
54454;SDS011;40364;52.270;10.546;2022-10-31T08:36:20;32.38;;;14.05;;
54454;SDS011;40364;52.270;10.546;2022-10-31T08:38:47;40.85;;;15.27;;
54454;SDS011;40364;52.270;10.546;2022-10-31T08:41:15;28.42;;;14.18;;
54454;SDS011;40364;52.270;10.546;2022-10-31T08:43:42;31.52;;;14.77;;
54454;SDS011;40364;52.270;10.546;2022-10-31T08:46:09;36.42;;;15.23;;
54454;SDS011;40364;52.270;10.546;2022-10-31T08:48:35;44.90;;;17.27;;
54454;SDS011;40364;52.270;10.546;2022-10-31T08:51:02;48.53;;;19.45;;
54454;SDS011;40364;52.270;10.546;2022-10-31T08:53:29;56.22;;;21.63;;
54454;SDS011;40364;52.270;10.546;2022-10-31T08:55:55;45.00;;;18.58;;
54454;SDS011;40364;52.270;10.546;2022-10-31T08:58:24;45.50;;;18.48;;
54454;SDS011;40364;52.270;10.546;2022-10-31T09:00:51;48.28;;;22.52;;
54454;SDS011;40364;52.270;10.546;2022-10-31T09:03:21;59.35;;;22.42;;
54454;SDS011;40364;52.270;10.546;2022-10-31T09:05:49;59.42;;;23.05;;
54454;SDS011;40364;52.270;10.546;2022-10-31T09:08:21;48.08;;;20.55;;
54454;SDS011;40364;52.270;10.546;2022-10-31T09:10:48;49.22;;;21.25;;
54454;SDS011;40364;52.270;10.546;2022-10-31T09:13:15;50.78;;;21.48;;
54454;SDS011;40364;52.270;10.546;2022-10-31T09:15:45;54.47;;;20.33;;
54454;SDS011;40364;52.270;10.546;2022-10-31T09:18:15;46.92;;;20.05;;
54454;SDS011;40364;52.270;10.546;2022-10-31T09:20:44;43.67;;;19.08;;
54454;SDS011;40364;52.270;10.546;2022-10-31T09:23:12;56.60;;;22.00;;
54454;SDS011;40364;52.270;10.546;2022-10-31T09:25:40;44.17;;;20.55;;
54454;SDS011;40364;52.270;10.546;2022-10-31T09:28:08;44.85;;;19.60;;
54454;SDS011;40364;52.270;10.546;2022-10-31T09:30:37;50.95;;;20.50;;
54454;SDS011;40364;52.270;10.546;2022-10-31T09:33:06;50.67;;;20.60;;
54454;SDS011;40364;52.270;10.546;2022-10-31T09:35:35;60.05;;;23.25;;
54454;SDS011;40364;52.270;10.546;2022-10-31T09:38:03;47.90;;;22.42;;
54454;SDS011;40364;52.270;10.546;2022-10-31T09:40:32;58.22;;;22.45;;
54454;SDS011;40364;52.270;10.546;2022-10-31T09:43:03;52.10;;;21.67;;
54454;SDS011;40364;52.270;10.546;2022-10-31T09:45:36;49.75;;;20.98;;
54454;SDS011;40364;52.270;10.546;2022-10-31T09:48:17;43.88;;;20.45;;
54454;SDS011;40364;52.270;10.546;2022-10-31T09:50:58;45.75;;;19.83;;
54454;SDS011;40364;52.270;10.546;2022-10-31T09:53:27;49.70;;;20.70;;
54454;SDS011;40364;52.270;10.546;2022-10-31T09:56:00;43.88;;;19.33;;
54454;SDS011;40364;52.270;10.546;2022-10-31T09:58:31;50.35;;;22.05;;
54454;SDS011;40364;52.270;10.546;2022-10-31T10:01:04;40.75;;;20.05;;
54454;SDS011;40364;52.270;10.546;2022-10-31T10:03:34;46.22;;;19.80;;
54454;SDS011;40364;52.270;10.546;2022-10-31T10:06:09;45.72;;;20.05;;
54454;SDS011;40364;52.270;10.546;2022-10-31T10:08:39;43.53;;;20.63;;
54454;SDS011;40364;52.270;10.546;2022-10-31T10:11:11;42.45;;;18.80;;
54454;SDS011;40364;52.270;10.546;2022-10-31T10:16:40;44.97;;;18.80;;
54454;SDS011;40364;52.270;10.546;2022-10-31T10:19:27;41.05;;;18.90;;
54454;SDS011;40364;52.270;10.546;2022-10-31T10:22:07;40.13;;;17.95;;
54454;SDS011;40364;52.270;10.546;2022-10-31T10:24:44;41.55;;;18.00;;
54454;SDS011;40364;52.270;10.546;2022-10-31T10:27:23;39.88;;;18.52;;
54454;SDS011;40364;52.270;10.546;2022-10-31T10:30:02;38.33;;;18.00;;
54454;SDS011;40364;52.270;10.546;2022-10-31T10:32:37;35.00;;;16.77;;
54454;SDS011;40364;52.270;10.546;2022-10-31T10:37:46;42.50;;;16.75;;
54454;SDS011;40364;52.270;10.546;2022-10-31T10:40:16;37.78;;;16.65;;
54454;SDS011;40364;52.270;10.546;2022-10-31T10:42:44;38.05;;;16.70;;
54454;SDS011;40364;52.270;10.546;2022-10-31T10:45:34;37.58;;;16.40;;
54454;SDS011;40364;52.270;10.546;2022-10-31T10:48:25;31.23;;;15.80;;
54454;SDS011;40364;52.270;10.546;2022-10-31T10:50:59;36.83;;;16.25;;
54454;SDS011;40364;52.270;10.546;2022-10-31T10:53:33;29.70;;;13.70;;
54454;SDS011;40364;52.270;10.546;2022-10-31T10:56:27;29.88;;;14.27;;
54454;SDS011;40364;52.270;10.546;2022-10-31T10:59:03;28.25;;;13.88;;
54454;SDS011;40364;52.270;10.546;2022-10-31T11:01:30;32.13;;;13.90;;
54454;SDS011;40364;52.270;10.546;2022-10-31T11:03:57;27.83;;;12.40;;
54454;SDS011;40364;52.270;10.546;2022-10-31T11:06:25;20.38;;;10.88;;
54454;SDS011;40364;52.270;10.546;2022-10-31T11:08:52;22.08;;;10.98;;
54454;SDS011;40364;52.270;10.546;2022-10-31T11:11:22;24.45;;;11.25;;
54454;SDS011;40364;52.270;10.546;2022-10-31T11:13:54;22.10;;;10.55;;
54454;SDS011;40364;52.270;10.546;2022-10-31T11:16:28;22.58;;;10.80;;
54454;SDS011;40364;52.270;10.546;2022-10-31T11:19:07;18.77;;;9.35;;
54454;SDS011;40364;52.270;10.546;2022-10-31T11:21:42;19.75;;;9.50;;
54454;SDS011;40364;52.270;10.546;2022-10-31T11:24:13;26.45;;;11.43;;
54454;SDS011;40364;52.270;10.546;2022-10-31T11:26:42;26.50;;;11.65;;
54454;SDS011;40364;52.270;10.546;2022-10-31T11:29:13;22.30;;;10.25;;
54454;SDS011;40364;52.270;10.546;2022-10-31T11:31:41;21.42;;;10.63;;
54454;SDS011;40364;52.270;10.546;2022-10-31T11:34:14;21.42;;;11.10;;
54454;SDS011;40364;52.270;10.546;2022-10-31T11:36:46;20.02;;;10.70;;
54454;SDS011;40364;52.270;10.546;2022-10-31T11:39:18;23.63;;;9.82;;
54454;SDS011;40364;52.270;10.546;2022-10-31T11:41:47;22.58;;;11.27;;
54454;SDS011;40364;52.270;10.546;2022-10-31T11:44:16;22.27;;;9.95;;
54454;SDS011;40364;52.270;10.546;2022-10-31T11:46:46;23.08;;;10.60;;
54454;SDS011;40364;52.270;10.546;2022-10-31T11:49:15;19.63;;;9.48;;
54454;SDS011;40364;52.270;10.546;2022-10-31T11:51:49;22.33;;;11.18;;
54454;SDS011;40364;52.270;10.546;2022-10-31T11:54:20;25.00;;;12.65;;
54454;SDS011;40364;52.270;10.546;2022-10-31T11:56:50;29.17;;;12.13;;
54454;SDS011;40364;52.270;10.546;2022-10-31T11:59:18;21.25;;;10.68;;
54454;SDS011;40364;52.270;10.546;2022-10-31T12:01:49;21.23;;;9.82;;
54454;SDS011;40364;52.270;10.546;2022-10-31T12:04:17;20.67;;;9.73;;
54454;SDS011;40364;52.270;10.546;2022-10-31T12:06:45;22.38;;;10.32;;
54454;SDS011;40364;52.270;10.546;2022-10-31T12:09:20;18.20;;;9.40;;
54454;SDS011;40364;52.270;10.546;2022-10-31T12:11:55;18.15;;;9.23;;
54454;SDS011;40364;52.270;10.546;2022-10-31T12:14:34;22.40;;;9.53;;
54454;SDS011;40364;52.270;10.546;2022-10-31T12:19:41;23.23;;;8.77;;
54454;SDS011;40364;52.270;10.546;2022-10-31T12:22:14;21.00;;;8.57;;
54454;SDS011;40364;52.270;10.546;2022-10-31T12:25:01;19.58;;;8.63;;
54454;SDS011;40364;52.270;10.546;2022-10-31T12:27:49;21.35;;;9.27;;
54454;SDS011;40364;52.270;10.546;2022-10-31T12:30:41;27.75;;;11.00;;
54454;SDS011;40364;52.270;10.546;2022-10-31T12:33:22;17.80;;;9.10;;
54454;SDS011;40364;52.270;10.546;2022-10-31T12:36:04;26.65;;;10.05;;
54454;SDS011;40364;52.270;10.546;2022-10-31T12:38:48;20.40;;;10.05;;
54454;SDS011;40364;52.270;10.546;2022-10-31T12:41:36;20.75;;;9.25;;
54454;SDS011;40364;52.270;10.546;2022-10-31T12:44:14;17.75;;;8.38;;
54454;SDS011;40364;52.270;10.546;2022-10-31T12:46:59;14.77;;;7.68;;
54454;SDS011;40364;52.270;10.546;2022-10-31T12:49:42;20.02;;;8.82;;
54454;SDS011;40364;52.270;10.546;2022-10-31T12:52:21;17.48;;;7.68;;
54454;SDS011;40364;52.270;10.546;2022-10-31T12:55:09;18.60;;;6.95;;
54454;SDS011;40364;52.270;10.546;2022-10-31T12:57:44;20.33;;;7.07;;
54454;SDS011;40364;52.270;10.546;2022-10-31T13:00:14;11.63;;;4.55;;
54454;SDS011;40364;52.270;10.546;2022-10-31T13:02:44;11.98;;;4.40;;
54454;SDS011;40364;52.270;10.546;2022-10-31T13:05:18;8.93;;;2.95;;
54454;SDS011;40364;52.270;10.546;2022-10-31T13:07:52;7.10;;;2.67;;
54454;SDS011;40364;52.270;10.546;2022-10-31T13:10:24;7.10;;;2.22;;
54454;SDS011;40364;52.270;10.546;2022-10-31T13:12:59;6.80;;;2.17;;
54454;SDS011;40364;52.270;10.546;2022-10-31T13:15:32;4.78;;;2.47;;
54454;SDS011;40364;52.270;10.546;2022-10-31T13:18:09;4.50;;;2.50;;
54454;SDS011;40364;52.270;10.546;2022-10-31T13:20:43;5.22;;;3.10;;
54454;SDS011;40364;52.270;10.546;2022-10-31T13:23:14;8.82;;;2.70;;
54454;SDS011;40364;52.270;10.546;2022-10-31T13:25:46;8.52;;;3.33;;
54454;SDS011;40364;52.270;10.546;2022-10-31T13:28:24;7.50;;;3.47;;
54454;SDS011;40364;52.270;10.546;2022-10-31T13:30:55;11.32;;;3.80;;
54454;SDS011;40364;52.270;10.546;2022-10-31T13:33:23;9.27;;;5.45;;
54454;SDS011;40364;52.270;10.546;2022-10-31T13:35:55;8.30;;;3.55;;
54454;SDS011;40364;52.270;10.546;2022-10-31T13:38:33;11.35;;;4.20;;
54454;SDS011;40364;52.270;10.546;2022-10-31T13:41:04;8.48;;;4.30;;
54454;SDS011;40364;52.270;10.546;2022-10-31T13:43:41;9.27;;;3.70;;
54454;SDS011;40364;52.270;10.546;2022-10-31T13:46:25;10.00;;;4.28;;
54454;SDS011;40364;52.270;10.546;2022-10-31T13:49:01;9.50;;;4.88;;
54454;SDS011;40364;52.270;10.546;2022-10-31T13:51:29;9.65;;;4.30;;
54454;SDS011;40364;52.270;10.546;2022-10-31T13:53:57;10.25;;;5.50;;
54454;SDS011;40364;52.270;10.546;2022-10-31T13:56:26;12.43;;;4.57;;
54454;SDS011;40364;52.270;10.546;2022-10-31T13:58:58;9.45;;;4.50;;
54454;SDS011;40364;52.270;10.546;2022-10-31T14:01:27;10.07;;;4.45;;
54454;SDS011;40364;52.270;10.546;2022-10-31T14:03:56;15.27;;;5.60;;
54454;SDS011;40364;52.270;10.546;2022-10-31T14:06:34;8.40;;;4.63;;
54454;SDS011;40364;52.270;10.546;2022-10-31T14:09:04;10.75;;;5.15;;
54454;SDS011;40364;52.270;10.546;2022-10-31T14:11:31;17.90;;;5.45;;
54454;SDS011;40364;52.270;10.546;2022-10-31T14:13:59;10.77;;;5.10;;
54454;SDS011;40364;52.270;10.546;2022-10-31T14:16:28;10.10;;;4.82;;
54454;SDS011;40364;52.270;10.546;2022-10-31T14:18:58;13.25;;;4.95;;
54454;SDS011;40364;52.270;10.546;2022-10-31T14:21:28;10.18;;;5.00;;
54454;SDS011;40364;52.270;10.546;2022-10-31T14:23:56;11.25;;;4.68;;
54454;SDS011;40364;52.270;10.546;2022-10-31T14:26:31;10.80;;;4.63;;
54454;SDS011;40364;52.270;10.546;2022-10-31T14:29:01;16.85;;;5.72;;
54454;SDS011;40364;52.270;10.546;2022-10-31T14:31:44;12.52;;;5.30;;
54454;SDS011;40364;52.270;10.546;2022-10-31T14:34:19;16.58;;;7.28;;
54454;SDS011;40364;52.270;10.546;2022-10-31T14:37:04;12.10;;;6.13;;
54454;SDS011;40364;52.270;10.546;2022-10-31T14:39:53;16.77;;;6.65;;
54454;SDS011;40364;52.270;10.546;2022-10-31T14:42:32;11.10;;;5.93;;
54454;SDS011;40364;52.270;10.546;2022-10-31T14:45:16;13.55;;;6.15;;
54454;SDS011;40364;52.270;10.546;2022-10-31T14:47:56;13.45;;;6.40;;